createdAt,value
2022-08-08T00:01:00.214Z,28.30
2022-08-08T00:06:16.802Z,28.20
2022-08-08T00:12:03.339Z,28.40
2022-08-08T00:17:22.525Z,29.00
2022-08-08T00:22:30.211Z,28.70
2022-08-08T00:27:37.175Z,28.30
2022-08-08T00:32:45.469Z,28.90
2022-08-08T00:38:17.099Z,29.30
2022-08-08T00:44:06.334Z,29.30
2022-08-08T00:49:36.416Z,29.10
2022-08-08T00:55:22.314Z,29.40
2022-08-08T01:00:53.218Z,29.10
2022-08-08T01:06:33.284Z,29.70
2022-08-08T01:12:18.016Z,29.40
2022-08-08T01:18:03.565Z,29.40
2022-08-08T01:24:06.888Z,29.20
2022-08-08T01:29:59.478Z,29.30
2022-08-08T01:35:53.473Z,29.60
2022-08-08T01:41:16.117Z,29.20
2022-08-08T01:46:41.427Z,29.80
2022-08-08T01:52:43.541Z,30.20
2022-08-08T01:58:04.591Z,30.00
2022-08-08T02:03:55.984Z,30.20
2022-08-08T02:08:55.981Z,30.10
2022-08-08T02:14:08.527Z,30.30
2022-08-08T02:19:41.713Z,30.20
2022-08-08T02:24:52.081Z,30.10
2022-08-08T02:30:06.889Z,30.30
2022-08-08T02:36:03.767Z,30.30
2022-08-08T02:42:03.603Z,30.10
2022-08-08T02:47:31.957Z,30.40
2022-08-08T02:52:52.216Z,30.70
2022-08-08T02:58:28.742Z,30.80
2022-08-08T03:05:05.252Z,30.40
2022-08-08T03:10:31.561Z,30.60
2022-08-08T03:16:34.192Z,30.00
2022-08-08T03:21:54.640Z,30.10
2022-08-08T03:27:21.736Z,30.00
2022-08-08T03:32:58.706Z,31.00
2022-08-08T03:38:58.247Z,30.00
2022-08-08T03:43:39.737Z,29.90
2022-08-08T03:49:38.270Z,30.30
2022-08-08T03:54:06.391Z,30.00
2022-08-08T03:59:22.684Z,30.10
2022-08-08T04:04:30.639Z,30.40
2022-08-08T04:10:00.046Z,30.20
2022-08-08T04:14:58.973Z,30.20
2022-08-08T04:20:04.696Z,30.70
2022-08-08T04:25:15.382Z,30.40
2022-08-08T04:30:21.791Z,30.70
2022-08-08T04:35:26.331Z,30.80
2022-08-08T04:40:33.020Z,30.70
2022-08-08T04:45:39.376Z,30.90
2022-08-08T04:50:46.040Z,31.80
2022-08-08T04:55:56.063Z,31.50
2022-08-08T05:01:05.926Z,31.70
2022-08-08T05:06:25.297Z,32.50
2022-08-08T05:11:29.221Z,32.20
2022-08-08T05:16:51.673Z,32.20
2022-08-08T05:22:04.718Z,32.90
2022-08-08T05:27:10.100Z,32.60
2022-08-08T05:32:14.732Z,32.90
2022-08-08T05:37:23.964Z,33.70
2022-08-08T05:42:45.468Z,33.60
2022-08-08T05:47:59.804Z,33.90
2022-08-08T05:53:55.402Z,34.20
2022-08-08T05:58:33.402Z,33.70
2022-08-08T06:03:42.097Z,34.70
2022-08-08T06:08:55.214Z,34.80
2022-08-08T06:14:07.093Z,34.50
2022-08-08T06:19:18.105Z,34.50
2022-08-08T06:24:27.006Z,35.00
2022-08-08T06:29:59.207Z,34.40
2022-08-08T06:35:30.705Z,35.00
2022-08-08T06:40:37.122Z,35.60
2022-08-08T06:45:40.730Z,35.60
2022-08-08T06:50:46.653Z,34.50
2022-08-08T06:56:02.787Z,35.30
2022-08-08T07:01:52.150Z,34.80
2022-08-08T07:06:39.121Z,35.00
2022-08-08T07:11:46.040Z,35.00
2022-08-08T07:17:09.564Z,34.70
2022-08-08T07:22:25.110Z,34.80
2022-08-08T07:27:47.107Z,34.50
2022-08-08T07:32:59.573Z,34.10
2022-08-08T07:38:18.299Z,33.20
2022-08-08T07:43:36.848Z,33.00
2022-08-08T07:48:42.155Z,33.00
2022-08-08T07:54:02.601Z,32.70
2022-08-08T07:59:14.791Z,32.20
2022-08-08T08:04:25.759Z,32.80
2022-08-08T08:09:37.568Z,32.10
2022-08-08T08:14:59.575Z,31.30
2022-08-08T08:20:10.662Z,31.40
2022-08-08T08:25:16.873Z,31.30
2022-08-08T08:30:39.766Z,31.00
2022-08-08T08:36:19.041Z,30.70
2022-08-08T08:41:16.916Z,30.50
2022-08-08T08:46:25.923Z,29.90
2022-08-08T08:51:30.653Z,29.80
2022-08-08T08:56:37.525Z,29.40
2022-08-08T09:01:46.366Z,28.70
2022-08-08T09:06:51.855Z,28.50
2022-08-08T09:12:02.080Z,29.10
2022-08-08T09:17:14.235Z,28.00
2022-08-08T09:22:27.099Z,28.10
2022-08-08T09:27:50.802Z,27.40
2022-08-08T09:33:12.819Z,26.60
2022-08-08T09:38:32.970Z,26.60
2022-08-08T09:44:06.351Z,25.60
2022-08-08T09:49:41.089Z,24.70
2022-08-08T09:54:44.590Z,25.60
2022-08-08T10:00:28.685Z,24.50
2022-08-08T10:05:23.025Z,24.40
2022-08-08T10:10:31.857Z,24.80
2022-08-08T10:15:39.604Z,24.70
2022-08-08T10:20:57.438Z,23.70
2022-08-08T10:26:04.287Z,24.00
2022-08-08T10:31:48.977Z,24.40
2022-08-08T10:36:53.825Z,23.20
2022-08-08T10:42:15.256Z,23.80
2022-08-08T10:47:22.161Z,23.60
2022-08-08T10:52:30.125Z,23.10
2022-08-08T10:57:50.481Z,23.40
2022-08-08T11:02:59.353Z,22.50
2022-08-08T11:08:38.991Z,21.90
2022-08-08T11:13:28.442Z,22.80
2022-08-08T11:18:35.917Z,22.60
2022-08-08T11:23:43.256Z,21.60
2022-08-08T11:28:50.230Z,21.00
2022-08-08T11:34:01.874Z,21.70
2022-08-08T11:39:10.788Z,20.90
2022-08-08T11:44:16.562Z,21.70
2022-08-08T11:49:33.739Z,21.50
2022-08-08T11:54:44.591Z,20.90
2022-08-08T12:00:00.194Z,20.90
2022-08-08T12:05:12.447Z,20.90
2022-08-08T12:10:18.185Z,20.30
2022-08-08T12:15:29.291Z,21.00
2022-08-08T12:20:41.687Z,20.00
2022-08-08T12:25:52.617Z,19.80
2022-08-08T12:31:07.605Z,20.70
2022-08-08T12:36:14.604Z,19.40
2022-08-08T12:41:35.099Z,19.70
2022-08-08T12:47:00.254Z,20.20
2022-08-08T12:52:28.324Z,19.50
2022-08-08T12:57:32.036Z,19.80
2022-08-08T13:02:51.354Z,20.20
2022-08-08T13:08:04.207Z,20.30
2022-08-08T13:13:08.428Z,19.70
2022-08-08T13:18:14.082Z,20.00
2022-08-08T13:23:37.087Z,19.80
2022-08-08T13:28:45.431Z,18.70
2022-08-08T13:33:50.277Z,19.30
2022-08-08T13:38:59.308Z,19.00
2022-08-08T13:44:04.866Z,18.40
2022-08-08T13:50:36.645Z,18.40
2022-08-08T13:54:49.618Z,17.80
2022-08-08T14:00:04.715Z,18.50
2022-08-08T14:05:21.698Z,18.40
2022-08-08T14:10:33.185Z,18.30
2022-08-08T14:15:50.045Z,18.00
2022-08-08T14:21:03.707Z,18.10
2022-08-08T14:26:25.193Z,17.40
2022-08-08T14:32:07.118Z,17.20
2022-08-08T14:36:55.093Z,17.80
2022-08-08T14:42:07.457Z,17.60
2022-08-08T14:47:21.039Z,17.10
2022-08-08T14:52:24.990Z,18.00
2022-08-08T14:58:03.287Z,17.60
2022-08-08T15:02:58.647Z,17.00
2022-08-08T15:08:21.745Z,17.00
2022-08-08T15:14:00.739Z,17.30
2022-08-08T15:19:05.364Z,16.60
2022-08-08T15:24:13.462Z,17.00
2022-08-08T15:29:18.974Z,17.10
2022-08-08T15:34:31.482Z,16.70
2022-08-08T15:39:38.533Z,16.80
2022-08-08T15:44:44.435Z,16.70
2022-08-08T15:49:49.486Z,16.40
2022-08-08T15:54:52.979Z,16.50
2022-08-08T16:00:05.944Z,16.50
2022-08-08T16:05:23.811Z,16.30
2022-08-08T16:13:09.905Z,16.30
2022-08-08T16:15:59.266Z,16.20
2022-08-08T16:21:26.049Z,16.20
2022-08-08T16:26:34.683Z,16.20
2022-08-08T16:31:48.922Z,16.30
2022-08-08T16:36:52.876Z,15.50
2022-08-08T16:42:01.413Z,15.90
2022-08-08T16:47:21.615Z,15.70
2022-08-08T16:55:00.746Z,15.40
2022-08-08T16:58:13.840Z,16.00
2022-08-08T17:03:24.293Z,16.00
2022-08-08T17:08:28.877Z,15.70
2022-08-08T17:13:50.208Z,15.70
2022-08-08T17:18:58.475Z,15.80
2022-08-08T17:24:10.489Z,15.60
2022-08-08T17:29:25.493Z,15.80
2022-08-08T17:34:48.334Z,15.50
2022-08-08T17:40:10.495Z,15.10
2022-08-08T17:45:22.485Z,15.50
2022-08-08T17:50:28.336Z,15.40
2022-08-08T17:56:06.888Z,15.40
2022-08-08T18:00:57.118Z,15.80
2022-08-08T18:06:02.693Z,16.00
2022-08-08T18:11:14.549Z,16.00
2022-08-08T18:16:23.122Z,16.10
2022-08-08T18:22:00.019Z,16.40
2022-08-08T18:26:56.801Z,16.60
2022-08-08T18:32:03.340Z,16.70
2022-08-08T18:37:10.095Z,16.80
2022-08-08T18:42:21.208Z,17.20
2022-08-08T18:47:26.584Z,17.30
2022-08-08T18:52:33.897Z,17.60
2022-08-08T18:57:40.968Z,17.90
2022-08-08T19:02:48.299Z,17.90
2022-08-08T19:07:59.938Z,18.00
2022-08-08T19:13:03.132Z,18.30
2022-08-08T19:18:33.332Z,18.20
2022-08-08T19:23:35.468Z,18.50
2022-08-08T19:28:38.857Z,18.70
2022-08-08T19:34:04.867Z,18.70
2022-08-08T19:39:09.536Z,18.90
2022-08-08T19:44:42.643Z,19.20
2022-08-08T19:49:37.985Z,19.10
2022-08-08T19:54:43.275Z,19.70
2022-08-08T19:59:46.615Z,19.90
2022-08-08T20:04:52.473Z,19.80
2022-08-08T20:09:58.641Z,19.70
2022-08-08T20:15:02.156Z,19.90
2022-08-08T20:20:22.293Z,19.80
2022-08-08T20:25:29.786Z,20.10
2022-08-08T20:30:53.555Z,20.40
2022-08-08T20:36:05.272Z,20.50
2022-08-08T20:41:18.928Z,20.50
2022-08-08T20:46:25.455Z,21.10
2022-08-08T20:51:32.535Z,20.90
2022-08-08T20:57:04.371Z,21.20
2022-08-08T21:02:06.205Z,21.70
2022-08-08T21:07:15.826Z,21.80
2022-08-08T21:12:32.184Z,21.90
2022-08-08T21:17:37.714Z,22.20
2022-08-08T21:22:41.151Z,22.20
2022-08-08T21:28:13.383Z,22.10
2022-08-08T21:33:11.577Z,22.60
2022-08-08T21:38:16.825Z,22.60
2022-08-08T21:43:22.662Z,22.70
2022-08-08T21:48:35.240Z,23.10
2022-08-08T21:54:31.838Z,22.90
2022-08-08T21:59:09.839Z,23.20
2022-08-08T22:04:13.377Z,23.60
2022-08-08T22:09:18.820Z,23.30
2022-08-08T22:14:26.894Z,23.40
2022-08-08T22:20:12.795Z,24.00
2022-08-08T22:24:56.161Z,23.90
2022-08-08T22:30:02.690Z,24.00
2022-08-08T22:35:07.646Z,24.30
2022-08-08T22:40:16.756Z,24.20
2022-08-08T22:45:21.613Z,24.40
2022-08-08T22:50:28.380Z,24.70
2022-08-08T22:55:32.037Z,24.60
2022-08-08T23:00:58.220Z,24.70
2022-08-08T23:06:03.737Z,24.80
2022-08-08T23:11:13.300Z,24.40
2022-08-08T23:16:38.016Z,24.50
2022-08-08T23:21:41.237Z,25.10
2022-08-08T23:26:44.397Z,25.00
2022-08-08T23:32:01.784Z,25.10
2022-08-08T23:37:08.198Z,25.60
2022-08-08T23:42:14.928Z,25.30
2022-08-08T23:49:06.341Z,25.40
2022-08-08T23:52:46.055Z,25.90
2022-08-08T23:57:52.914Z,25.50
